sensor_id;sensor_type;location;lat;lon;timestamp;pressure;altitude;pressure_sealevel;temperature;humidity
59877;BME280;45749;51.140;17.184;2023-04-06T00:00:47;100638.03;;;0.87;74.74
59877;BME280;45749;51.140;17.184;2023-04-06T00:03:13;100639.03;;;0.81;74.58
59877;BME280;45749;51.140;17.184;2023-04-06T00:05:39;100632.31;;;0.74;74.54
59877;BME280;45749;51.140;17.184;2023-04-06T00:08:04;100635.81;;;0.73;74.34
59877;BME280;45749;51.140;17.184;2023-04-06T00:10:30;100629.78;;;0.73;74.70
59877;BME280;45749;51.140;17.184;2023-04-06T00:12:55;100644.53;;;0.70;75.09
59877;BME280;45749;51.140;17.184;2023-04-06T00:15:22;100645.53;;;0.66;74.88
59877;BME280;45749;51.140;17.184;2023-04-06T00:17:48;100636.00;;;0.65;75.00
59877;BME280;45749;51.140;17.184;2023-04-06T00:20:13;100639.47;;;0.66;74.95
59877;BME280;45749;51.140;17.184;2023-04-06T00:22:39;100634.34;;;0.63;75.06
59877;BME280;45749;51.140;17.184;2023-04-06T00:25:05;100632.78;;;0.57;75.47
59877;BME280;45749;51.140;17.184;2023-04-06T00:27:31;100637.06;;;0.58;75.17
59877;BME280;45749;51.140;17.184;2023-04-06T00:29:56;100629.16;;;0.63;75.56
59877;BME280;45749;51.140;17.184;2023-04-06T00:32:21;100633.59;;;0.59;75.42
59877;BME280;45749;51.140;17.184;2023-04-06T00:34:47;100624.22;;;0.54;75.48
59877;BME280;45749;51.140;17.184;2023-04-06T00:37:12;100625.13;;;0.51;75.13
59877;BME280;45749;51.140;17.184;2023-04-06T00:39:38;100626.88;;;0.51;75.30
59877;BME280;45749;51.140;17.184;2023-04-06T00:42:12;100622.41;;;0.56;75.53
59877;BME280;45749;51.140;17.184;2023-04-06T00:44:39;100630.94;;;0.61;75.17
59877;BME280;45749;51.140;17.184;2023-04-06T00:47:05;100620.84;;;0.50;75.42
59877;BME280;45749;51.140;17.184;2023-04-06T00:49:32;100620.16;;;0.43;75.53
59877;BME280;45749;51.140;17.184;2023-04-06T00:51:57;100616.81;;;0.38;75.53
59877;BME280;45749;51.140;17.184;2023-04-06T00:54:23;100613.50;;;0.33;75.25
59877;BME280;45749;51.140;17.184;2023-04-06T00:56:48;100612.75;;;0.28;75.42
59877;BME280;45749;51.140;17.184;2023-04-06T00:59:14;100610.28;;;0.23;75.70
59877;BME280;45749;51.140;17.184;2023-04-06T01:01:39;100615.50;;;0.22;75.70
59877;BME280;45749;51.140;17.184;2023-04-06T01:04:05;100622.50;;;0.20;75.86
59877;BME280;45749;51.140;17.184;2023-04-06T01:06:30;100624.25;;;0.18;75.70
59877;BME280;45749;51.140;17.184;2023-04-06T01:08:56;100613.97;;;0.15;76.05
59877;BME280;45749;51.140;17.184;2023-04-06T01:11:21;100615.69;;;0.14;76.12
59877;BME280;45749;51.140;17.184;2023-04-06T01:13:47;100614.84;;;0.14;75.65
59877;BME280;45749;51.140;17.184;2023-04-06T01:16:12;100608.00;;;0.11;75.82
59877;BME280;45749;51.140;17.184;2023-04-06T01:18:38;100608.97;;;0.07;75.80
59877;BME280;45749;51.140;17.184;2023-04-06T01:21:03;100617.59;;;0.08;76.05
59877;BME280;45749;51.140;17.184;2023-04-06T01:23:29;100613.34;;;0.05;75.94
59877;BME280;45749;51.140;17.184;2023-04-06T01:25:54;100616.78;;;0.06;76.25
59877;BME280;45749;51.140;17.184;2023-04-06T01:28:20;100615.03;;;0.06;76.03
59877;BME280;45749;51.140;17.184;2023-04-06T01:30:45;100612.47;;;0.05;75.81
59877;BME280;45749;51.140;17.184;2023-04-06T01:33:11;100615.06;;;0.05;76.24
59877;BME280;45749;51.140;17.184;2023-04-06T01:35:37;100610.03;;;-0.02;76.09
59877;BME280;45749;51.140;17.184;2023-04-06T01:38:02;100614.31;;;-0.01;76.11
59877;BME280;45749;51.140;17.184;2023-04-06T01:40:28;100611.81;;;-0.04;76.12
59877;BME280;45749;51.140;17.184;2023-04-06T01:42:53;100616.16;;;-0.04;76.54
59877;BME280;45749;51.140;17.184;2023-04-06T01:45:19;100620.47;;;-0.05;76.42
59877;BME280;45749;51.140;17.184;2023-04-06T01:47:44;100622.19;;;-0.04;76.61
59877;BME280;45749;51.140;17.184;2023-04-06T01:50:10;100618.72;;;-0.03;76.33
59877;BME280;45749;51.140;17.184;2023-04-06T01:52:37;100616.97;;;-0.02;76.51
59877;BME280;45749;51.140;17.184;2023-04-06T01:55:03;100616.13;;;-0.03;76.46
59877;BME280;45749;51.140;17.184;2023-04-06T01:57:28;100611.81;;;-0.04;76.39
59877;BME280;45749;51.140;17.184;2023-04-06T01:59:54;100616.16;;;-0.04;76.23
59877;BME280;45749;51.140;17.184;2023-04-06T02:02:19;100614.56;;;-0.10;76.20
59877;BME280;45749;51.140;17.184;2023-04-06T02:04:45;100618.09;;;-0.12;76.45
59877;BME280;45749;51.140;17.184;2023-04-06T02:07:10;100612.97;;;-0.15;76.58
59877;BME280;45749;51.140;17.184;2023-04-06T02:09:35;100609.63;;;-0.20;76.43
59877;BME280;45749;51.140;17.184;2023-04-06T02:12:01;100610.50;;;-0.21;76.78
59877;BME280;45749;51.140;17.184;2023-04-06T02:14:27;100614.00;;;-0.22;76.95
59877;BME280;45749;51.140;17.184;2023-04-06T02:16:52;100606.38;;;-0.29;76.72
59877;BME280;45749;51.140;17.184;2023-04-06T02:19:18;100600.34;;;-0.29;76.59
59877;BME280;45749;51.140;17.184;2023-04-06T02:21:43;100615.81;;;-0.26;76.61
59877;BME280;45749;51.140;17.184;2023-04-06T02:24:09;100608.97;;;-0.30;76.65
59877;BME280;45749;51.140;17.184;2023-04-06T02:26:34;100609.94;;;-0.34;76.42
59877;BME280;45749;51.140;17.184;2023-04-06T02:29:00;100615.19;;;-0.36;76.54
59877;BME280;45749;51.140;17.184;2023-04-06T02:31:27;100616.06;;;-0.37;76.54
59877;BME280;45749;51.140;17.184;2023-04-06T02:33:52;100611.88;;;-0.42;76.84
59877;BME280;45749;51.140;17.184;2023-04-06T02:36:17;100617.91;;;-0.42;76.77
59877;BME280;45749;51.140;17.184;2023-04-06T02:38:43;100614.53;;;-0.45;76.87
59877;BME280;45749;51.140;17.184;2023-04-06T02:41:08;100617.19;;;-0.49;76.93
59877;BME280;45749;51.140;17.184;2023-04-06T02:43:34;100612.09;;;-0.52;77.08
59877;BME280;45749;51.140;17.184;2023-04-06T02:46:00;100616.34;;;-0.49;76.89
59877;BME280;45749;51.140;17.184;2023-04-06T02:48:25;100626.72;;;-0.49;77.02
59877;BME280;45749;51.140;17.184;2023-04-06T02:50:51;100624.16;;;-0.51;77.08
59877;BME280;45749;51.140;17.184;2023-04-06T02:53:16;100622.47;;;-0.53;76.99
59877;BME280;45749;51.140;17.184;2023-04-06T02:55:41;100619.09;;;-0.57;77.02
59877;BME280;45749;51.140;17.184;2023-04-06T02:58:07;100622.47;;;-0.53;76.88
59877;BME280;45749;51.140;17.184;2023-04-06T03:00:32;100625.88;;;-0.51;76.77
59877;BME280;45749;51.140;17.184;2023-04-06T03:02:57;100626.88;;;-0.57;76.97
59877;BME280;45749;51.140;17.184;2023-04-06T03:05:23;100622.59;;;-0.58;76.88
59877;BME280;45749;51.140;17.184;2023-04-06T03:07:48;100638.97;;;-0.57;76.96
59877;BME280;45749;51.140;17.184;2023-04-06T03:10:14;100636.44;;;-0.59;76.95
59877;BME280;45749;51.140;17.184;2023-04-06T03:12:39;100645.97;;;-0.61;77.13
59877;BME280;45749;51.140;17.184;2023-04-06T03:15:07;100639.09;;;-0.62;77.24
59877;BME280;45749;51.140;17.184;2023-04-06T03:17:32;100640.84;;;-0.62;76.86
59877;BME280;45749;51.140;17.184;2023-04-06T03:19:58;100633.91;;;-0.62;76.82
59877;BME280;45749;51.140;17.184;2023-04-06T03:22:23;100628.72;;;-0.62;76.98
59877;BME280;45749;51.140;17.184;2023-04-06T03:24:49;100634.00;;;-0.66;77.03
59877;BME280;45749;51.140;17.184;2023-04-06T03:27:14;100642.66;;;-0.67;76.67
59877;BME280;45749;51.140;17.184;2023-04-06T03:29:40;100648.75;;;-0.68;76.92
59877;BME280;45749;51.140;17.184;2023-04-06T03:32:05;100639.28;;;-0.71;76.77
59877;BME280;45749;51.140;17.184;2023-04-06T03:34:30;100643.69;;;-0.76;77.02
59877;BME280;45749;51.140;17.184;2023-04-06T03:36:56;100648.03;;;-0.77;77.12
59877;BME280;45749;51.140;17.184;2023-04-06T03:39:21;100648.88;;;-0.76;77.10
59877;BME280;45749;51.140;17.184;2023-04-06T03:41:47;100646.28;;;-0.76;76.84
59877;BME280;45749;51.140;17.184;2023-04-06T03:44:12;100643.75;;;-0.79;76.98
59877;BME280;45749;51.140;17.184;2023-04-06T03:46:38;100648.13;;;-0.81;77.16
59877;BME280;45749;51.140;17.184;2023-04-06T03:49:03;100645.63;;;-0.86;77.04
59877;BME280;45749;51.140;17.184;2023-04-06T03:51:28;100657.72;;;-0.86;77.23
59877;BME280;45749;51.140;17.184;2023-04-06T03:53:54;100654.34;;;-0.90;77.32
59877;BME280;45749;51.140;17.184;2023-04-06T03:56:20;100661.31;;;-0.92;77.40
59877;BME280;45749;51.140;17.184;2023-04-06T03:58:45;100667.34;;;-0.91;77.37
59877;BME280;45749;51.140;17.184;2023-04-06T04:01:14;100670.78;;;-0.91;77.15
59877;BME280;45749;51.140;17.184;2023-04-06T04:03:40;100666.53;;;-0.93;77.43
59877;BME280;45749;51.140;17.184;2023-04-06T04:06:05;100672.59;;;-0.95;77.40
59877;BME280;45749;51.140;17.184;2023-04-06T04:08:31;100669.16;;;-0.97;77.24
59877;BME280;45749;51.140;17.184;2023-04-06T04:10:56;100669.16;;;-0.97;77.47
59877;BME280;45749;51.140;17.184;2023-04-06T04:13:21;100676.88;;;-0.93;77.05
59877;BME280;45749;51.140;17.184;2023-04-06T04:15:47;100674.28;;;-0.93;77.22
59877;BME280;45749;51.140;17.184;2023-04-06T04:18:13;100669.97;;;-0.93;77.23
59877;BME280;45749;51.140;17.184;2023-04-06T04:20:38;100679.53;;;-0.97;77.13
59877;BME280;45749;51.140;17.184;2023-04-06T04:23:04;100662.22;;;-0.95;76.98
59877;BME280;45749;51.140;17.184;2023-04-06T04:25:29;100667.41;;;-0.95;76.97
59877;BME280;45749;51.140;17.184;2023-04-06T04:27:55;100664.00;;;-0.97;77.01
59877;BME280;45749;51.140;17.184;2023-04-06T04:30:20;100658.78;;;-0.95;77.01
59877;BME280;45749;51.140;17.184;2023-04-06T04:32:46;100667.44;;;-0.96;76.90
59877;BME280;45749;51.140;17.184;2023-04-06T04:35:12;100664.94;;;-1.01;77.10
59877;BME280;45749;51.140;17.184;2023-04-06T04:37:40;100666.69;;;-1.03;77.14
59877;BME280;45749;51.140;17.184;2023-04-06T04:40:06;100665.06;;;-1.07;77.18
59877;BME280;45749;51.140;17.184;2023-04-06T04:42:31;100676.31;;;-1.08;77.10
59877;BME280;45749;51.140;17.184;2023-04-06T04:44:56;100668.53;;;-1.08;77.17
59877;BME280;45749;51.140;17.184;2023-04-06T04:47:22;100661.63;;;-1.07;77.24
59877;BME280;45749;51.140;17.184;2023-04-06T04:49:47;100670.28;;;-1.08;77.70
59877;BME280;45749;51.140;17.184;2023-04-06T04:52:13;100664.22;;;-1.09;77.90
59877;BME280;45749;51.140;17.184;2023-04-06T04:54:38;100675.41;;;-1.07;77.86
59877;BME280;45749;51.140;17.184;2023-04-06T04:57:06;100667.66;;;-1.07;77.87
59877;BME280;45749;51.140;17.184;2023-04-06T04:59:31;100671.09;;;-1.06;77.67
59877;BME280;45749;51.140;17.184;2023-04-06T05:01:57;100665.09;;;-1.08;78.16
59877;BME280;45749;51.140;17.184;2023-04-06T05:04:23;100667.59;;;-1.04;78.25
59877;BME280;45749;51.140;17.184;2023-04-06T05:06:49;100675.31;;;-1.01;78.12
59877;BME280;45749;51.140;17.184;2023-04-06T05:09:14;100672.66;;;-0.99;78.40
59877;BME280;45749;51.140;17.184;2023-04-06T05:11:40;100679.47;;;-0.93;78.17
59877;BME280;45749;51.140;17.184;2023-04-06T05:14:05;100675.13;;;-0.93;78.42
59877;BME280;45749;51.140;17.184;2023-04-06T05:16:32;100676.03;;;-0.94;78.11
59877;BME280;45749;51.140;17.184;2023-04-06T05:18:57;100685.38;;;-0.87;78.35
59877;BME280;45749;51.140;17.184;2023-04-06T05:21:23;100691.34;;;-0.83;78.19
59877;BME280;45749;51.140;17.184;2023-04-06T05:23:48;100690.44;;;-0.81;78.20
59877;BME280;45749;51.140;17.184;2023-04-06T05:26:14;100689.50;;;-0.77;78.25
59877;BME280;45749;51.140;17.184;2023-04-06T05:28:39;100679.91;;;-0.72;78.24
59877;BME280;45749;51.140;17.184;2023-04-06T05:31:07;100684.19;;;-0.69;78.42
59877;BME280;45749;51.140;17.184;2023-04-06T05:33:32;100684.91;;;-0.64;78.20
59877;BME280;45749;51.140;17.184;2023-04-06T05:35:58;100688.31;;;-0.60;78.34
59877;BME280;45749;51.140;17.184;2023-04-06T05:38:25;100689.09;;;-0.57;78.52
59877;BME280;45749;51.140;17.184;2023-04-06T05:40:51;100677.84;;;-0.56;78.52
59877;BME280;45749;51.140;17.184;2023-04-06T05:43:16;100683.84;;;-0.54;78.85
59877;BME280;45749;51.140;17.184;2023-04-06T05:45:44;100685.47;;;-0.48;78.74
59877;BME280;45749;51.140;17.184;2023-04-06T05:48:09;100684.50;;;-0.44;78.81
59877;BME280;45749;51.140;17.184;2023-04-06T05:50:35;100686.19;;;-0.41;79.09
59877;BME280;45749;51.140;17.184;2023-04-06T05:53:00;100671.34;;;-0.36;78.84
59877;BME280;45749;51.140;17.184;2023-04-06T05:55:25;100674.72;;;-0.31;79.07
59877;BME280;45749;51.140;17.184;2023-04-06T05:57:51;100684.94;;;-0.25;78.84
59877;BME280;45749;51.140;17.184;2023-04-06T06:00:16;100681.41;;;-0.21;79.04
59877;BME280;45749;51.140;17.184;2023-04-06T06:02:42;100671.81;;;-0.17;78.83
59877;BME280;45749;51.140;17.184;2023-04-06T06:05:08;100683.75;;;-0.10;78.97
59877;BME280;45749;51.140;17.184;2023-04-06T06:07:34;100677.69;;;-0.11;79.45
59877;BME280;45749;51.140;17.184;2023-04-06T06:09:59;100676.84;;;-0.10;79.44
59877;BME280;45749;51.140;17.184;2023-04-06T06:12:25;100678.47;;;-0.06;79.25
59877;BME280;45749;51.140;17.184;2023-04-06T06:14:50;100685.22;;;0.02;79.51
59877;BME280;45749;51.140;17.184;2023-04-06T06:17:16;100685.16;;;0.03;79.97
59877;BME280;45749;51.140;17.184;2023-04-06T06:19:41;100685.78;;;0.13;79.55
59877;BME280;45749;51.140;17.184;2023-04-06T06:22:07;100677.88;;;0.19;79.29
59877;BME280;45749;51.140;17.184;2023-04-06T06:24:32;100676.03;;;0.24;79.69
59877;BME280;45749;51.140;17.184;2023-04-06T06:26:58;100682.75;;;0.31;79.38
59877;BME280;45749;51.140;17.184;2023-04-06T06:29:23;100676.44;;;0.41;79.51
59877;BME280;45749;51.140;17.184;2023-04-06T06:31:49;100686.59;;;0.51;78.89
59877;BME280;45749;51.140;17.184;2023-04-06T06:34:14;100683.88;;;0.57;78.84
59877;BME280;45749;51.140;17.184;2023-04-06T06:36:40;100686.22;;;0.66;78.63
59877;BME280;45749;51.140;17.184;2023-04-06T06:39:06;100680.00;;;0.72;78.54
59877;BME280;45749;51.140;17.184;2023-04-06T06:41:32;100681.59;;;0.77;78.39
59877;BME280;45749;51.140;17.184;2023-04-06T06:43:57;100678.84;;;0.82;78.47
59877;BME280;45749;51.140;17.184;2023-04-06T06:46:23;100679.63;;;0.85;78.02
59877;BME280;45749;51.140;17.184;2023-04-06T06:48:48;100671.06;;;0.82;78.43
59877;BME280;45749;51.140;17.184;2023-04-06T06:51:13;100678.84;;;0.83;79.13
59877;BME280;45749;51.140;17.184;2023-04-06T06:53:39;100674.56;;;0.81;79.29
59877;BME280;45749;51.140;17.184;2023-04-06T06:56:05;100673.72;;;0.80;79.50
59877;BME280;45749;51.140;17.184;2023-04-06T06:58:30;100671.91;;;0.82;79.53
59877;BME280;45749;51.140;17.184;2023-04-06T07:00:57;100677.91;;;0.86;79.38
59877;BME280;45749;51.140;17.184;2023-04-06T07:03:23;100686.31;;;0.96;79.79
59877;BME280;45749;51.140;17.184;2023-04-06T07:05:49;100687.84;;;1.03;79.75
59877;BME280;45749;51.140;17.184;2023-04-06T07:08:19;100688.53;;;1.08;80.06
59877;BME280;45749;51.140;17.184;2023-04-06T07:10:45;100687.59;;;1.12;79.64
59877;BME280;45749;51.140;17.184;2023-04-06T07:13:10;100695.09;;;1.21;79.53
59877;BME280;45749;51.140;17.184;2023-04-06T07:15:36;100699.34;;;1.25;79.46
59877;BME280;45749;51.140;17.184;2023-04-06T07:18:02;100701.81;;;1.30;79.65
59877;BME280;45749;51.140;17.184;2023-04-06T07:20:27;100703.38;;;1.35;79.76
59877;BME280;45749;51.140;17.184;2023-04-06T07:22:53;100709.19;;;1.45;79.56
59877;BME280;45749;51.140;17.184;2023-04-06T07:25:19;100696.03;;;1.50;79.52
59877;BME280;45749;51.140;17.184;2023-04-06T07:27:44;100708.78;;;1.59;78.89
59877;BME280;45749;51.140;17.184;2023-04-06T07:30:10;100705.09;;;1.66;78.79
59877;BME280;45749;51.140;17.184;2023-04-06T07:32:35;100698.53;;;1.82;78.97
59877;BME280;45749;51.140;17.184;2023-04-06T07:35:01;100699.13;;;1.91;78.82
59877;BME280;45749;51.140;17.184;2023-04-06T07:37:27;100694.53;;;1.99;79.19
59877;BME280;45749;51.140;17.184;2023-04-06T07:39:52;100698.47;;;2.12;78.70
59877;BME280;45749;51.140;17.184;2023-04-06T07:42:17;100694.66;;;2.22;78.72
59877;BME280;45749;51.140;17.184;2023-04-06T07:44:43;100694.31;;;2.33;78.54
59877;BME280;45749;51.140;17.184;2023-04-06T07:47:08;100699.22;;;2.42;77.90
59877;BME280;45749;51.140;17.184;2023-04-06T07:49:34;100699.75;;;2.52;77.17
59877;BME280;45749;51.140;17.184;2023-04-06T07:52:00;100692.69;;;2.55;77.06
59877;BME280;45749;51.140;17.184;2023-04-06T07:54:28;100699.16;;;2.70;76.45
59877;BME280;45749;51.140;17.184;2023-04-06T07:56:53;100691.97;;;2.77;76.39
59877;BME280;45749;51.140;17.184;2023-04-06T07:59:18;100700.38;;;2.85;75.72
59877;BME280;45749;51.140;17.184;2023-04-06T08:01:44;100691.59;;;2.88;75.05
59877;BME280;45749;51.140;17.184;2023-04-06T08:04:09;100695.00;;;2.90;75.22
59877;BME280;45749;51.140;17.184;2023-04-06T08:06:35;100692.13;;;2.97;75.57
59877;BME280;45749;51.140;17.184;2023-04-06T08:09:01;100694.34;;;3.08;75.24
59877;BME280;45749;51.140;17.184;2023-04-06T08:11:27;100702.41;;;3.25;75.04
59877;BME280;45749;51.140;17.184;2023-04-06T08:13:52;100686.31;;;3.38;74.74
59877;BME280;45749;51.140;17.184;2023-04-06T08:16:18;100687.63;;;3.49;74.09
59877;BME280;45749;51.140;17.184;2023-04-06T08:18:44;100680.47;;;3.55;74.18
59877;BME280;45749;51.140;17.184;2023-04-06T08:21:09;100690.22;;;3.73;73.08
59877;BME280;45749;51.140;17.184;2023-04-06T08:23:34;100686.25;;;3.85;73.35
59877;BME280;45749;51.140;17.184;2023-04-06T08:26:00;100687.44;;;3.99;72.55
59877;BME280;45749;51.140;17.184;2023-04-06T08:28:25;100678.63;;;4.02;72.31
59877;BME280;45749;51.140;17.184;2023-04-06T08:30:51;100683.28;;;4.16;72.87
59877;BME280;45749;51.140;17.184;2023-04-06T08:33:16;100687.03;;;4.31;71.58
59877;BME280;45749;51.140;17.184;2023-04-06T08:35:42;100679.78;;;4.37;72.20
59877;BME280;45749;51.140;17.184;2023-04-06T08:38:07;100678.31;;;4.52;71.81
59877;BME280;45749;51.140;17.184;2023-04-06T08:40:39;100684.72;;;4.65;70.67
59877;BME280;45749;51.140;17.184;2023-04-06T08:43:13;100680.81;;;4.76;70.93
59877;BME280;45749;51.140;17.184;2023-04-06T08:45:40;100688.06;;;4.89;70.43
59877;BME280;45749;51.140;17.184;2023-04-06T08:48:06;100679.75;;;5.00;70.15
59877;BME280;45749;51.140;17.184;2023-04-06T08:50:32;100687.13;;;5.11;70.22
59877;BME280;45749;51.140;17.184;2023-04-06T08:52:59;100680.56;;;5.21;70.29
59877;BME280;45749;51.140;17.184;2023-04-06T08:55:25;100683.41;;;5.35;70.03
59877;BME280;45749;51.140;17.184;2023-04-06T08:57:50;100684.50;;;5.50;69.43
59877;BME280;45749;51.140;17.184;2023-04-06T09:00:20;100686.38;;;5.65;68.88
59877;BME280;45749;51.140;17.184;2023-04-06T09:02:47;100678.88;;;5.77;68.18
59877;BME280;45749;51.140;17.184;2023-04-06T09:05:14;100676.75;;;5.85;68.13
59877;BME280;45749;51.140;17.184;2023-04-06T09:07:40;100679.50;;;6.01;67.27
59877;BME280;45749;51.140;17.184;2023-04-06T09:10:06;100681.00;;;6.06;66.73
59877;BME280;45749;51.140;17.184;2023-04-06T09:12:32;100674.53;;;6.14;67.20
59877;BME280;45749;51.140;17.184;2023-04-06T09:14:59;100678.09;;;6.30;65.59
59877;BME280;45749;51.140;17.184;2023-04-06T09:17:27;100675.03;;;6.39;65.16
59877;BME280;45749;51.140;17.184;2023-04-06T09:19:53;100682.81;;;6.41;64.84
59877;BME280;45749;51.140;17.184;2023-04-06T09:22:19;100679.19;;;6.43;65.18
59877;BME280;45749;51.140;17.184;2023-04-06T09:24:52;100673.66;;;6.49;64.44
59877;BME280;45749;51.140;17.184;2023-04-06T09:27:20;100674.09;;;6.57;65.43
59877;BME280;45749;51.140;17.184;2023-04-06T09:30:09;100667.00;;;6.60;63.25
59877;BME280;45749;51.140;17.184;2023-04-06T09:32:51;100667.00;;;6.60;63.38
59877;BME280;45749;51.140;17.184;2023-04-06T09:35:18;100664.63;;;6.55;63.08
59877;BME280;45749;51.140;17.184;2023-04-06T09:37:46;100668.63;;;6.62;62.98
59877;BME280;45749;51.140;17.184;2023-04-06T09:40:12;100653.34;;;6.70;63.01
59877;BME280;45749;51.140;17.184;2023-04-06T09:42:41;100661.03;;;6.91;63.37
59877;BME280;45749;51.140;17.184;2023-04-06T09:45:07;100650.44;;;7.10;63.26
59877;BME280;45749;51.140;17.184;2023-04-06T09:47:35;100649.47;;;7.28;62.18
59877;BME280;45749;51.140;17.184;2023-04-06T09:50:02;100647.84;;;7.41;62.55
59877;BME280;45749;51.140;17.184;2023-04-06T09:52:41;100642.69;;;7.56;61.97
59877;BME280;45749;51.140;17.184;2023-04-06T09:55:08;100653.38;;;7.68;61.86
59877;BME280;45749;51.140;17.184;2023-04-06T09:57:38;100650.75;;;7.84;61.67
59877;BME280;45749;51.140;17.184;2023-04-06T10:00:11;100643.53;;;8.04;60.36
59877;BME280;45749;51.140;17.184;2023-04-06T10:05:22;100640.06;;;8.33;60.35
59877;BME280;45749;51.140;17.184;2023-04-06T10:07:54;100640.47;;;8.41;59.81
59877;BME280;45749;51.140;17.184;2023-04-06T10:10:21;100642.56;;;8.51;59.55
59877;BME280;45749;51.140;17.184;2023-04-06T10:12:48;100643.06;;;8.57;59.23
59877;BME280;45749;51.140;17.184;2023-04-06T10:15:15;100637.25;;;8.66;58.07
59877;BME280;45749;51.140;17.184;2023-04-06T10:17:40;100628.72;;;8.77;59.00
59877;BME280;45749;51.140;17.184;2023-04-06T10:20:16;100634.09;;;8.90;57.69
59877;BME280;45749;51.140;17.184;2023-04-06T10:23:08;100644.25;;;8.96;58.09
59877;BME280;45749;51.140;17.184;2023-04-06T10:25:39;100637.38;;;9.08;58.80
59877;BME280;45749;51.140;17.184;2023-04-06T10:28:08;100624.28;;;9.21;56.95
59877;BME280;45749;51.140;17.184;2023-04-06T10:30:42;100623.66;;;9.31;57.77
59877;BME280;45749;51.140;17.184;2023-04-06T10:33:18;100633.97;;;9.49;57.61
59877;BME280;45749;51.140;17.184;2023-04-06T10:35:43;100629.81;;;9.59;56.67
59877;BME280;45749;51.140;17.184;2023-04-06T10:38:09;100619.41;;;9.70;56.61
59877;BME280;45749;51.140;17.184;2023-04-06T10:40:39;100627.31;;;9.70;55.66
59877;BME280;45749;51.140;17.184;2023-04-06T10:43:12;100614.13;;;9.70;55.16
59877;BME280;45749;51.140;17.184;2023-04-06T10:45:38;100616.97;;;9.67;55.21
59877;BME280;45749;51.140;17.184;2023-04-06T10:48:19;100612.44;;;9.69;55.05
59877;BME280;45749;51.140;17.184;2023-04-06T10:50:47;100613.03;;;9.60;52.40
59877;BME280;45749;51.140;17.184;2023-04-06T10:53:21;100624.56;;;9.30;53.39
59877;BME280;45749;51.140;17.184;2023-04-06T10:55:50;100611.78;;;9.24;53.17
59877;BME280;45749;51.140;17.184;2023-04-06T10:58:16;100613.69;;;9.22;52.71
59877;BME280;45749;51.140;17.184;2023-04-06T11:00:48;100616.66;;;9.30;54.94
59877;BME280;45749;51.140;17.184;2023-04-06T11:03:14;100601.50;;;9.48;54.69
59877;BME280;45749;51.140;17.184;2023-04-06T11:05:46;100596.50;;;9.58;53.19
59877;BME280;45749;51.140;17.184;2023-04-06T11:08:25;100598.63;;;9.66;52.60
59877;BME280;45749;51.140;17.184;2023-04-06T11:10:51;100600.06;;;9.57;52.92
59877;BME280;45749;51.140;17.184;2023-04-06T11:13:17;100600.50;;;9.63;53.30
59877;BME280;45749;51.140;17.184;2023-04-06T11:15:42;100591.75;;;9.63;53.04
59877;BME280;45749;51.140;17.184;2023-04-06T11:18:08;100596.13;;;9.64;52.71
59877;BME280;45749;51.140;17.184;2023-04-06T11:20:33;100592.91;;;9.59;52.71
59877;BME280;45749;51.140;17.184;2023-04-06T11:22:59;100591.38;;;9.69;52.88
59877;BME280;45749;51.140;17.184;2023-04-06T11:25:25;100589.53;;;9.84;52.32
59877;BME280;45749;51.140;17.184;2023-04-06T11:27:55;100591.47;;;9.95;52.58
59877;BME280;45749;51.140;17.184;2023-04-06T11:30:20;100584.28;;;9.97;52.36
59877;BME280;45749;51.140;17.184;2023-04-06T11:32:46;100581.25;;;10.03;52.51
59877;BME280;45749;51.140;17.184;2023-04-06T11:35:19;100583.28;;;10.12;51.14
59877;BME280;45749;51.140;17.184;2023-04-06T11:37:45;100580.56;;;10.14;51.39
59877;BME280;45749;51.140;17.184;2023-04-06T11:40:11;100571.16;;;10.22;51.09
59877;BME280;45749;51.140;17.184;2023-04-06T11:42:36;100570.38;;;10.35;52.07
59877;BME280;45749;51.140;17.184;2023-04-06T11:45:02;100578.81;;;10.52;51.40
59877;BME280;45749;51.140;17.184;2023-04-06T11:47:29;100574.59;;;10.63;50.27
59877;BME280;45749;51.140;17.184;2023-04-06T11:49:55;100563.00;;;10.65;49.82
59877;BME280;45749;51.140;17.184;2023-04-06T11:52:24;100565.13;;;10.60;49.87
59877;BME280;45749;51.140;17.184;2023-04-06T11:54:52;100560.78;;;10.59;50.04
59877;BME280;45749;51.140;17.184;2023-04-06T11:57:21;100556.38;;;10.60;49.20
59877;BME280;45749;51.140;17.184;2023-04-06T11:59:48;100567.34;;;10.66;49.97
59877;BME280;45749;51.140;17.184;2023-04-06T12:02:13;100554.66;;;10.71;49.30
59877;BME280;45749;51.140;17.184;2023-04-06T12:04:38;100545.56;;;10.75;49.38
59877;BME280;45749;51.140;17.184;2023-04-06T12:07:04;100544.31;;;10.81;49.11
59877;BME280;45749;51.140;17.184;2023-04-06T12:09:30;100538.59;;;10.87;49.14
59877;BME280;45749;51.140;17.184;2023-04-06T12:11:56;100539.00;;;10.94;48.78
59877;BME280;45749;51.140;17.184;2023-04-06T12:14:21;100540.91;;;10.92;48.70
59877;BME280;45749;51.140;17.184;2023-04-06T12:16:47;100535.63;;;10.92;47.60
59877;BME280;45749;51.140;17.184;2023-04-06T12:19:13;100531.44;;;10.76;47.54
59877;BME280;45749;51.140;17.184;2023-04-06T12:21:38;100527.00;;;10.64;47.82
59877;BME280;45749;51.140;17.184;2023-04-06T12:24:05;100527.97;;;10.63;47.86
59877;BME280;45749;51.140;17.184;2023-04-06T12:26:30;100526.38;;;10.73;48.79
59877;BME280;45749;51.140;17.184;2023-04-06T12:28:57;100515.47;;;10.91;47.66
59877;BME280;45749;51.140;17.184;2023-04-06T12:31:28;100522.22;;;10.95;47.09
59877;BME280;45749;51.140;17.184;2023-04-06T12:33:53;100500.69;;;10.88;47.31
59877;BME280;45749;51.140;17.184;2023-04-06T12:36:19;100507.53;;;10.91;47.68
59877;BME280;45749;51.140;17.184;2023-04-06T12:38:48;100496.97;;;10.91;46.75
59877;BME280;45749;51.140;17.184;2023-04-06T12:41:15;100498.25;;;10.85;46.27
59877;BME280;45749;51.140;17.184;2023-04-06T12:43:41;100501.22;;;10.80;46.61